Terminal Aerodrome Forecast
Issued by NWS

Home | Current Version | Previous Version | Graphics & Text | Print | Product List | Glossary On
Versions: 1 2 3 4 5 6 7 8 9 10 11 12 13 14 15 16 17 18 19
091
FTUS43 KABR 210523
TAFPIR
TAF
KPIR 210523Z 2106/2206 VRB03KT P6SM OVC045
     FM211200 13004KT P6SM SCT200
     FM211900 14008KT P6SM FEW250=

USA.gov is the U.S. government's official web portal to all federal, state and local government web resources and services.